Flight Track Log - Related Links

Times and Time Zones

All times are in EST time to prevent confusion due to time zone crossing. See the LJY630 flight status page for this flight to view local times or setup timezone preferences in your user account.

Time Position Orientation Groundspeed Altitude Reporting Facility
EST Latitude Longitude Course Direction KTS MPH feet Rate Location/Type
Mon 10:05:01 AM 40.4383 -80.3256 195° South 235 270 6,300  Level Cleveland Center
Mon 10:06:03 AM 40.3683 -80.3250 180° South 252 290 9,800 3,194 Climbing Cleveland Center
Mon 10:07:05 AM 40.2986 -80.3233 179° South 275 316 12,900 3,317 Climbing Cleveland Center
Mon 10:08:06 AM 40.2022 -80.3161 177° South 291 335 16,600 2,976 Climbing Cleveland Center
Mon 10:09:00 AM 39.8698 -80.2439 187° South  Level FlightAware Approximate
Mon 10:09:08 AM 40.1197 -80.3131 178° South 296 341 19,000  Level Cleveland Center
Mon 10:10:10 AM 40.0344 -80.3075 177° South 307 353 21,700 2,488 Climbing Cleveland Center
Mon 10:11:11 AM 39.9494 -80.3039 178° South 306 352 24,100 2,098 Climbing Cleveland Center
Mon 10:12:13 AM 39.8619 -80.2997 178° South 312 359 26,000 919 Climbing Cleveland Center
Mon 10:13:15 AM 39.7653 -80.2953 178° South 346 398 26,000  Level Cleveland Center
Mon 10:14:16 AM 39.6617 -80.2892 177° South 371 427 26,000  Level Cleveland Center
Mon 10:15:18 AM 39.5367 -80.2825 178° South 375 432 26,000 195 Level Cleveland Center
Mon 10:16:19 AM 39.4342 -80.2767 177° South 369 425 26,400 927 Climbing Cleveland Center
Mon 10:17:21 AM 39.3353 -80.2711 178° South 359 413 27,900 1,548 Climbing Cleveland Center
Mon 10:18:23 AM 39.2406 -80.2681 179° South 345 397 29,600 1,561 Climbing Cleveland Center
Mon 10:19:24 AM 39.1586 -80.2906 192° South 306 352 31,100 1,610 Climbing Cleveland Center
Mon 10:20:26 AM 39.0781 -80.3108 191° South 297 342 32,900 1,740 Climbing Cleveland Center
Mon 10:21:35 AM 38.9864 -80.3375 193° South 287 330 34,900 1,606 Climbing Washington Center
Mon 10:22:33 AM 38.9150 -80.3542 190° South 274 315 36,300 1,311 Climbing Washington Center
Mon 10:23:34 AM 38.8456 -80.3708 191° South 268 308 37,500 934 Climbing Washington Center
Mon 10:24:35 AM 38.7736 -80.3928 193° South 262 302 38,200 639 Climbing Washington Center
Mon 10:25:36 AM 38.6975 -80.4197 195° South 267 307 38,800 559 Climbing Washington Center
Mon 10:26:33 AM 38.6239 -80.4389 191° South 273 314 39,300 508 Climbing Washington Center
Mon 10:27:34 AM 38.5439 -80.4575 190° South 285 328 39,800 462 Climbing Washington Center
Mon 10:28:04 AM 38.5111 -80.4561 178° South 289 333 40,000 132 Climbing Indianapolis Center
Mon 10:29:05 AM 38.4275 -80.4783 192° South 301 346 40,000  Level Indianapolis Center
Mon 10:30:07 AM 38.3394 -80.5000 191° South 316 364 40,000  Level Indianapolis Center
Mon 10:31:08 AM 38.2494 -80.5222 191° South 325 374 40,000  Level Indianapolis Center
Mon 10:32:10 AM 38.1583 -80.5453 191° South 330 380 40,000  Level Indianapolis Center
Mon 10:33:11 AM 38.0500 -80.5719 191° South 329 379 40,000  Level Indianapolis Center
Mon 10:34:12 AM 37.9583 -80.5942 191° South 332 382 40,000  Level Indianapolis Center
Mon 10:35:14 AM 37.8667 -80.6175 191° South 334 384 40,000  Level Indianapolis Center
Mon 10:36:15 AM 37.7861 -80.6369 191° South 333 383 40,000  Level Indianapolis Center
Mon 10:37:17 AM 37.6792 -80.6639 191° South 334 384 40,000  Level Indianapolis Center
Mon 10:38:18 AM 37.5883 -80.6864 191° South 340 391 40,000  Level Indianapolis Center
Mon 10:39:20 AM 37.4983 -80.7078 191° South 340 391 40,000  Level Indianapolis Center
Mon 10:40:21 AM 37.4069 -80.7303 191° South 340 391 40,000  Level Indianapolis Center
Mon 10:41:22 AM 37.2967 -80.7572 191° South 343 395 40,000  Level Indianapolis Center
Mon 10:42:24 AM 37.2058 -80.7786 191° South 342 394 40,000  Level Indianapolis Center
Mon 10:43:25 AM 37.1089 -80.7906 186° South 355 409 40,000  Level Indianapolis Center
Mon 10:44:27 AM 36.9917 -80.8061 186° South 361 415 40,000  Level Indianapolis Center
Mon 10:45:28 AM 36.8942 -80.8161 185° South 360 414 40,000  Level Indianapolis Center
Mon 10:46:30 AM 36.7956 -80.8264 185° South 363 418 40,000  Level Indianapolis Center
Mon 10:47:39 AM 36.6714 -80.8397 185° South 360 414 40,000  Level Atlanta Center
Mon 10:48:39 AM 36.5736 -80.8514 185° South 360 414 40,000  Level Atlanta Center
Mon 10:49:39 AM 36.4719 -80.8633 185° South 365 420 40,000  Level Atlanta Center
Mon 10:50:39 AM 36.3700 -80.8750 185° South 365 420 40,000  Level Atlanta Center
Mon 10:51:39 AM 36.2703 -80.8867 185° South 365 420 40,000  Level Atlanta Center
Mon 10:52:39 AM 36.1683 -80.8983 185° South 365 420 40,000  Level Atlanta Center
Mon 10:53:39 AM 36.0706 -80.9097 185° South 365 420 40,000  Level Atlanta Center
Mon 10:54:39 AM 35.9686 -80.9214 185° South 365 420 40,000  Level Atlanta Center
Mon 10:55:39 AM 35.8667 -80.9331 185° South 365 420 40,000  Level Atlanta Center
Mon 10:56:39 AM 35.7625 -80.9422 184° South 370 426 40,000  Level Atlanta Center
Mon 10:57:39 AM 35.6608 -80.9536 185° South 370 426 40,000  Level Atlanta Center
Mon 10:58:39 AM 35.5567 -80.9653 185° South 370 426 40,000  Level Atlanta Center
Mon 10:59:39 AM 35.4736 -80.9761 186° South 370 426 40,000  Level Atlanta Center
Mon 11:00:39 AM 35.3467 -80.9908 185° South 370 426 40,000  Level Atlanta Center
Mon 11:01:39 AM 35.2550 -81.0044 187° South 370 426 40,000  Level Atlanta Center
Mon 11:02:39 AM 35.1508 -81.0108 183° South 370 426 40,000  Level Atlanta Center
Mon 11:06:07 AM 34.7786 -81.0575 186° South 392 451 40,000  Level Jacksonville Center
Mon 11:07:07 AM 34.6764 -81.0672 184° South 387 445 40,000  Level Jacksonville Center
Mon 11:08:07 AM 34.5703 -81.0822 187° South 387 445 40,000  Level Jacksonville Center
Mon 11:09:07 AM 34.4661 -81.0919 184° South 387 445 40,000  Level Jacksonville Center
Mon 11:10:07 AM 34.3642 -81.0992 183° South 387 445 40,000  Level Jacksonville Center
Mon 11:11:07 AM 34.2600 -81.1111 185° South 381 438 40,000  Level Jacksonville Center
Mon 11:12:07 AM 34.1536 -81.1208 184° South 381 438 40,000  Level Jacksonville Center
Mon 11:13:07 AM 34.0539 -81.1431 190° South 381 438 40,000  Level Jacksonville Center
Mon 11:14:07 AM 33.9583 -81.1800 198° South 370 426 40,000  Level Jacksonville Center
Mon 11:15:07 AM 33.8628 -81.2194 199° South 370 426 40,000  Level Jacksonville Center
Mon 11:16:07 AM 33.7675 -81.2586 199° South 365 420 40,000  Level Jacksonville Center
Mon 11:17:07 AM 33.6719 -81.3003 200° South 370 426 40,000  Level Jacksonville Center
Mon 11:18:07 AM 33.5744 -81.3394 199° South 370 426 40,000  Level Jacksonville Center
Mon 11:19:07 AM 33.4789 -81.3736 197° South 365 420 40,000  Level Jacksonville Center
Mon 11:20:07 AM 33.3811 -81.4125 198° South 365 420 40,000  Level Jacksonville Center
Mon 11:21:07 AM 33.2814 -81.4514 198° South 365 420 40,000  Level Jacksonville Center
Mon 11:22:07 AM 33.1858 -81.4953 201° Southwest 365 420 40,000  Level Jacksonville Center
Mon 11:23:07 AM 33.0903 -81.5339 199° South 370 426 40,000  Level Jacksonville Center
Mon 11:24:07 AM 32.9925 -81.5725 198° South 370 426 40,000  Level Jacksonville Center
Mon 11:25:07 AM 32.8928 -81.6111 198° South 370 426 40,000  Level Jacksonville Center
Mon 11:26:07 AM 32.7972 -81.6494 199° South 370 426 40,000  Level Jacksonville Center
Mon 11:27:07 AM 32.6994 -81.6878 198° South 370 426 40,000  Level Jacksonville Center
Mon 11:28:07 AM 32.6119 -81.7211 198° South 370 426 40,000  Level Jacksonville Center
Mon 11:29:07 AM 32.5061 -81.7644 199° South 370 426 40,000  Level Jacksonville Center
Mon 11:30:07 AM 32.4081 -81.8025 198° South 370 426 40,000  Level Jacksonville Center
Mon 11:31:07 AM 32.3208 -81.8378 199° South 370 426 40,000  Level Jacksonville Center
Mon 11:32:07 AM 32.2106 -81.8808 198° South 370 426 40,000  Level Jacksonville Center
Mon 11:33:07 AM 32.1231 -81.9139 198° South 370 426 40,000  Level Jacksonville Center
Mon 11:34:07 AM 32.0128 -81.9542 197° South 375 432 40,000  Level Jacksonville Center
Mon 11:35:07 AM 31.9086 -81.9747 190° South 380 437 40,000  Level Jacksonville Center
Mon 11:36:07 AM 31.8083 -81.9831 184° South 392 451 40,000  Level Jacksonville Center
Mon 11:37:07 AM 31.6894 -81.9967 186° South 392 451 40,000  Level Jacksonville Center
Mon 11:38:07 AM 31.5914 -82.0047 184° South 392 451 40,000  Level Jacksonville Center
Mon 11:39:07 AM 31.4828 -82.0156 185° South 402 463 40,000  Level Jacksonville Center
Mon 11:40:07 AM 31.3722 -82.0264 185° South 402 463 40,000  Level Jacksonville Center
Mon 11:41:07 AM 31.2617 -82.0369 185° South 402 463 40,000  Level Jacksonville Center
Mon 11:42:07 AM 31.1489 -82.0478 185° South 402 463 40,000  Level Jacksonville Center
Mon 11:43:07 AM 31.0383 -82.0586 185° South 407 468 40,000  Level Jacksonville Center
Mon 11:44:07 AM 30.9258 -82.0667 184° South 407 468 40,000  Level Jacksonville Center
Mon 11:45:07 AM 30.8172 -82.0775 185° South 402 463 40,000  Level Jacksonville Center
Mon 11:46:07 AM 30.7044 -82.0881 185° South 402 463 40,000  Level Jacksonville Center
Mon 11:47:07 AM 30.5939 -82.0986 185° South 402 463 40,000  Level Jacksonville Center
Mon 11:48:07 AM 30.4792 -82.1019 181° South 407 468 40,000  Level Jacksonville Center
Mon 11:49:07 AM 30.3664 -82.1150 186° South 407 468 40,000  Level Jacksonville Center
Mon 11:50:07 AM 30.2497 -82.1256 184° South 407 468 40,000  Level Jacksonville Center
Mon 11:51:07 AM 30.1347 -82.1192 177° South 407 468 40,000  Level Jacksonville Center
Mon 11:52:07 AM 30.0136 -82.1033 174° South 420 483 40,000  Level Jacksonville Center
Mon 11:53:07 AM 29.8964 -82.0781 169° South 430 495 40,000  Level Jacksonville Center
Mon 11:54:07 AM 29.7647 -82.0528 171° South 436 502 40,000 -250 Level Jacksonville Center
Mon 11:55:07 AM 29.6436 -82.0275 170° South 436 502 39,500 -1,300 Descending Jacksonville Center
Mon 11:56:07 AM 29.5264 -82.0047 170° South 441 507 37,400 -2,100 Descending Jacksonville Center
Mon 11:57:07 AM 29.4114 -81.9819 170° South 436 502 35,300 -1,200 Descending Jacksonville Center
Mon 11:58:07 AM 29.2986 -81.9614 171° South 424 488 35,000 -150 Descending Jacksonville Center
Mon 11:59:07 AM 29.1983 -81.9364 168° South 419 482 35,000 -659 Level Jacksonville Center
Mon 12:01:00 PM 28.9653 -81.8922 171° South 426 490 33,100 -1,249 Descending Miami Center
Mon 12:02:00 PM 28.8453 -81.8678 170° South 432 497 31,400 -1,800 Descending Miami Center
Mon 12:03:00 PM 28.7253 -81.8433 170° South 437 503 29,500 -1,900 Descending Miami Center
Mon 12:04:00 PM 28.6008 -81.8189 170° South 447 514 27,600 -1,300 Descending Miami Center
Mon 12:05:00 PM 28.4811 -81.7875 167° South 447 514 26,900 -450 Descending Miami Center
Mon 12:06:00 PM 28.3653 -81.7542 166° South 442 509 26,700 -600 Descending Miami Center
Mon 12:07:00 PM 28.2536 -81.7233 166° South 448 516 25,700 -1,000 Descending Miami Center
Mon 12:08:00 PM 28.1358 -81.6900 166° South 448 516 24,700 -1,000 Descending Miami Center
Mon 12:09:00 PM 28.0153 -81.6803 176° South 448 516 23,700 -1,000 Descending Miami Center
Mon 12:10:00 PM 27.9036 -81.7108 194° South 433 498 22,700 -1,000 Descending Miami Center
Mon 12:11:00 PM 27.7961 -81.7414 194° South 409 471 21,700 -1,200 Descending Miami Center
Mon 12:12:00 PM 27.6744 -81.7642 189° South 404 465 20,300 -1,450 Descending Miami Center
Mon 12:13:00 PM 27.5622 -81.7478 173° South 404 465 18,800 -1,300 Descending Miami Center
Mon 12:14:00 PM 27.4675 -81.7064 159° South 412 474 17,700 -1,300 Descending Miami Center
Mon 12:15:00 PM 27.3650 -81.6553 156° South 407 468 16,200 -1,500 Descending Miami Center
Mon 12:16:00 PM 27.2642 -81.6067 157° South 401 461 14,700 -1,550 Descending Miami Center
Mon 12:17:00 PM 27.1636 -81.5606 158° South 401 461 13,100 -1,650 Descending Miami Center
Mon 12:18:00 PM 27.0689 -81.5169 158° South 390 449 11,400 -1,050 Descending Miami Center
Mon 12:19:00 PM 26.9808 -81.4669 153° Southeast 372 428 11,000 -400 Descending Miami Center
Mon 12:20:00 PM 26.8922 -81.4239 157° South 360 414 10,600 -700 Descending Miami Center
Mon 12:21:00 PM 26.8100 -81.3833 156° South 313 360 9,600 -1,000 Descending Miami Center
Mon 12:22:00 PM 26.7347 -81.3922 186° South 262 302 8,600 -800 Descending Miami Center
Mon 12:23:00 PM 26.6594 -81.3961 183° South 272 313 8,000 -300 Descending Miami Center
Mon 12:24:00 PM 26.5842 -81.3978 181° South 272 313 8,000  Level Miami Center
Mon 12:25:00 PM 26.5086 -81.4067 186° South 272 313 8,000  Level Miami Center
Mon 12:26:00 PM 26.4125 -81.4303 192° South  Level FlightAware Approximate
Mon 12:33:00 PM 26.1500 -81.7667 246° West  Level FlightAware Approximate
Mon 12:34:00 PM 26.1524 -81.7756 246° West  Level Estimated
Mon 12:35:00 PM 26.1524 -81.7756 246° West  Level Estimated
Mon 12:36:00 PM 26.1524 -81.7756 246° West  Level Estimated
Mon 12:37:00 PM 26.1524 -81.7756 246° West  Level Estimated
Mon 12:38:00 PM 26.1524 -81.7756 246° West  Level Estimated
Mon 12:39:00 PM 26.1524 -81.7756 246° West  Level Estimated
Mon 12:40:00 PM 26.1524 -81.7756 246° West  Level Estimated
Mon 12:41:00 PM 26.1524 -81.7756 246° West  Level Estimated
Mon 12:42:00 PM 26.1524 -81.7756 246° West  Level Estimated
Mon 12:43:00 PM 26.1524 -81.7756 246° West  Level Estimated

Login

Don't have an account? Register now (free) for customized features, flight alerts, and more!